createdAt,value
2022-12-26T00:01:02.725Z,11.32
2022-12-26T00:03:30.707Z,11.30
2022-12-26T00:05:58.247Z,11.73
2022-12-26T00:08:25.106Z,11.75
2022-12-26T00:10:52.310Z,13.25
2022-12-26T00:13:39.466Z,12.88
2022-12-26T00:16:17.519Z,10.53
2022-12-26T00:18:45.640Z,12.32
2022-12-26T00:21:14.415Z,13.02
2022-12-26T00:23:41.686Z,13.40
2022-12-26T00:26:13.993Z,13.57
2022-12-26T00:28:41.787Z,12.67
2022-12-26T00:31:12.259Z,12.95
2022-12-26T00:33:39.761Z,13.35
2022-12-26T00:36:09.979Z,13.20
2022-12-26T00:38:38.054Z,12.70
2022-12-26T00:41:05.811Z,13.40
2022-12-26T00:43:33.406Z,12.45
2022-12-26T00:46:00.684Z,13.55
2022-12-26T00:48:27.993Z,13.07
2022-12-26T00:50:55.499Z,13.52
2022-12-26T00:53:23.369Z,13.67
2022-12-26T00:55:51.426Z,12.48
2022-12-26T00:58:19.624Z,12.93
2022-12-26T01:00:47.027Z,13.43
2022-12-26T01:03:15.079Z,11.68
2022-12-26T01:05:43.770Z,13.73
2022-12-26T01:08:22.369Z,13.68
2022-12-26T01:10:51.171Z,14.80
2022-12-26T01:13:18.527Z,15.45
2022-12-26T01:15:50.677Z,14.20
2022-12-26T01:18:17.977Z,15.17
2022-12-26T01:20:45.386Z,15.75
2022-12-26T01:23:12.204Z,15.80
2022-12-26T01:26:14.889Z,14.00
2022-12-26T01:28:27.732Z,14.15
2022-12-26T01:30:54.709Z,16.33
2022-12-26T01:33:22.061Z,13.68
2022-12-26T01:35:50.950Z,15.77
2022-12-26T01:38:18.404Z,14.90
2022-12-26T01:40:45.727Z,15.90
2022-12-26T01:43:15.053Z,14.27
2022-12-26T01:45:45.731Z,16.83
2022-12-26T01:48:22.399Z,16.48
2022-12-26T01:50:49.784Z,15.70
2022-12-26T01:53:21.906Z,16.55
2022-12-26T01:55:58.605Z,10.47
2022-12-26T01:58:31.529Z,15.85
2022-12-26T02:00:59.003Z,13.63
2022-12-26T02:03:44.807Z,17.35
2022-12-26T02:06:13.670Z,16.33
2022-12-26T02:08:40.968Z,16.93
2022-12-26T02:11:08.350Z,16.40
2022-12-26T02:13:36.990Z,17.17
2022-12-26T02:16:06.610Z,15.80
2022-12-26T02:18:33.918Z,16.45
2022-12-26T02:21:31.631Z,15.97
2022-12-26T02:23:58.835Z,17.75
2022-12-26T02:26:42.893Z,18.75
2022-12-26T02:29:43.639Z,16.73
2022-12-26T02:32:26.243Z,17.45
2022-12-26T02:34:53.441Z,18.50
2022-12-26T02:37:43.498Z,19.98
2022-12-26T02:40:10.794Z,19.67
2022-12-26T02:42:49.540Z,18.00
2022-12-26T02:45:58.672Z,13.75
2022-12-26T02:48:51.413Z,17.07
2022-12-26T02:51:51.564Z,17.33
2022-12-26T02:54:48.883Z,16.83
2022-12-26T02:57:49.905Z,15.02
2022-12-26T03:00:38.504Z,15.75
2022-12-26T03:03:33.574Z,14.60
2022-12-26T03:06:38.185Z,17.05
2022-12-26T03:09:35.006Z,16.98
2022-12-26T03:12:49.877Z,18.90
2022-12-26T03:15:20.745Z,17.05
2022-12-26T03:17:53.188Z,15.93
2022-12-26T03:20:33.435Z,17.23
2022-12-26T03:23:05.587Z,13.35
2022-12-26T03:25:53.994Z,16.52
2022-12-26T03:28:22.036Z,15.77
2022-12-26T03:30:49.441Z,18.33
2022-12-26T03:33:35.496Z,17.92
2022-12-26T03:36:04.044Z,16.60
2022-12-26T03:39:07.581Z,15.02
2022-12-26T03:42:17.886Z,12.02
2022-12-26T03:45:26.887Z,14.53
2022-12-26T03:48:31.484Z,13.18
2022-12-26T03:51:45.090Z,14.85
2022-12-26T03:54:39.578Z,11.98
2022-12-26T03:57:30.926Z,14.63
2022-12-26T04:00:25.939Z,12.83
2022-12-26T04:03:17.857Z,12.80
2022-12-26T04:06:05.581Z,13.55
2022-12-26T04:09:04.346Z,13.85
2022-12-26T04:11:51.674Z,13.00
2022-12-26T04:14:57.022Z,13.10
2022-12-26T04:17:51.046Z,12.73
2022-12-26T04:20:49.216Z,12.18
2022-12-26T04:23:51.040Z,13.10
2022-12-26T04:26:53.493Z,13.00
2022-12-26T04:29:38.874Z,12.93
2022-12-26T04:32:36.581Z,13.18
2022-12-26T04:35:45.984Z,11.43
2022-12-26T04:38:37.605Z,12.23
2022-12-26T04:41:24.957Z,13.65
2022-12-26T04:44:09.060Z,11.50
2022-12-26T04:46:45.263Z,13.30
2022-12-26T04:49:33.853Z,10.25
2022-12-26T04:52:04.908Z,12.63
2022-12-26T04:54:31.913Z,14.98
2022-12-26T04:56:59.169Z,12.87
2022-12-26T04:59:26.441Z,13.15
2022-12-26T05:02:12.724Z,16.58
2022-12-26T05:04:58.729Z,15.85
2022-12-26T05:07:52.413Z,15.05
2022-12-26T05:10:29.666Z,15.00
2022-12-26T05:12:57.081Z,16.85
2022-12-26T05:15:24.415Z,14.05
2022-12-26T05:18:09.788Z,15.43
2022-12-26T05:20:46.174Z,14.70
2022-12-26T05:23:39.087Z,13.53
2022-12-26T05:26:25.743Z,13.82
2022-12-26T05:28:58.284Z,11.77
2022-12-26T05:31:29.687Z,11.95
2022-12-26T05:34:15.921Z,12.52
2022-12-26T05:36:48.270Z,9.63
2022-12-26T05:39:15.676Z,10.23
2022-12-26T05:41:42.963Z,10.25
2022-12-26T05:44:10.504Z,11.30
2022-12-26T05:46:38.214Z,11.05
2022-12-26T05:49:06.066Z,11.40
2022-12-26T05:51:33.726Z,11.13
2022-12-26T05:54:01.277Z,11.13
2022-12-26T05:56:28.740Z,9.82
2022-12-26T05:58:57.511Z,9.15
2022-12-26T06:01:25.657Z,7.83
2022-12-26T06:03:55.193Z,7.65
2022-12-26T06:06:23.054Z,8.30
2022-12-26T06:08:51.957Z,9.95
2022-12-26T06:11:19.301Z,8.90
2022-12-26T06:13:46.523Z,8.23
2022-12-26T06:16:16.165Z,8.82
2022-12-26T06:18:43.551Z,8.52
2022-12-26T06:21:13.394Z,6.07
2022-12-26T06:23:40.842Z,6.70
2022-12-26T06:26:10.264Z,7.80
2022-12-26T06:28:37.912Z,7.55
2022-12-26T06:31:07.694Z,8.05
2022-12-26T06:33:35.107Z,6.93
2022-12-26T06:36:10.868Z,7.90
2022-12-26T06:38:38.184Z,7.20
2022-12-26T06:41:06.903Z,6.65
2022-12-26T06:43:34.309Z,7.05
2022-12-26T06:46:02.916Z,5.93
2022-12-26T06:48:30.553Z,6.68
2022-12-26T06:50:57.843Z,8.00
2022-12-26T06:53:25.296Z,6.47
2022-12-26T06:55:52.684Z,7.22
2022-12-26T06:58:19.943Z,7.22
2022-12-26T07:00:47.167Z,5.18
2022-12-26T07:03:14.448Z,4.37
2022-12-26T07:05:41.924Z,5.90
2022-12-26T07:08:09.332Z,6.75
2022-12-26T07:10:37.147Z,7.07
2022-12-26T07:13:04.460Z,6.72
2022-12-26T07:15:31.830Z,6.60
2022-12-26T07:17:59.225Z,6.90
2022-12-26T07:20:26.444Z,5.18
2022-12-26T07:22:55.117Z,6.32
2022-12-26T07:25:22.099Z,6.65
2022-12-26T07:27:49.469Z,5.43
2022-12-26T07:30:17.399Z,6.88
2022-12-26T07:32:44.606Z,5.22
2022-12-26T07:35:11.848Z,5.78
2022-12-26T07:37:39.694Z,4.32
2022-12-26T07:40:07.051Z,5.20
2022-12-26T07:42:34.565Z,5.90
2022-12-26T07:45:01.850Z,6.82
2022-12-26T07:47:29.230Z,4.93
2022-12-26T07:49:56.097Z,5.43
2022-12-26T07:52:23.379Z,5.13
2022-12-26T07:54:50.729Z,5.15
2022-12-26T08:00:05.886Z,5.30
2022-12-26T08:02:39.501Z,4.60
2022-12-26T08:05:07.105Z,4.47
2022-12-26T08:07:34.346Z,3.88
2022-12-26T08:10:02.735Z,3.55
2022-12-26T08:12:29.581Z,4.28
2022-12-26T08:14:57.047Z,4.28
2022-12-26T08:17:24.330Z,3.83
2022-12-26T08:19:51.595Z,3.72
2022-12-26T08:22:18.793Z,3.83
2022-12-26T08:24:47.628Z,3.75
2022-12-26T08:27:16.021Z,2.90
2022-12-26T08:29:42.958Z,3.53
2022-12-26T08:32:10.194Z,2.78
2022-12-26T08:34:37.662Z,3.22
2022-12-26T08:37:04.845Z,2.95
2022-12-26T08:39:32.123Z,4.60
2022-12-26T08:41:59.349Z,3.23
2022-12-26T08:44:27.885Z,3.45
2022-12-26T08:46:55.629Z,3.80
2022-12-26T08:49:22.994Z,3.58
2022-12-26T08:51:50.265Z,4.15
2022-12-26T08:54:17.098Z,3.07
2022-12-26T08:56:44.384Z,2.80
2022-12-26T08:59:11.637Z,3.15
2022-12-26T09:01:38.947Z,3.63
2022-12-26T09:04:09.091Z,3.40
2022-12-26T09:06:38.611Z,3.30
2022-12-26T09:09:07.147Z,3.17
2022-12-26T09:11:34.176Z,4.10
2022-12-26T09:14:02.618Z,3.22
2022-12-26T09:16:37.456Z,4.35
2022-12-26T09:19:06.782Z,3.53
2022-12-26T09:21:34.133Z,4.07
2022-12-26T09:24:03.856Z,3.47
2022-12-26T09:26:31.409Z,2.80
2022-12-26T09:28:58.746Z,3.08
2022-12-26T09:31:31.050Z,3.57
2022-12-26T09:33:58.550Z,2.78
2022-12-26T09:36:29.714Z,3.47
2022-12-26T09:38:58.436Z,4.07
2022-12-26T09:41:35.690Z,3.35
2022-12-26T09:44:17.229Z,3.77
2022-12-26T09:47:15.213Z,3.10
2022-12-26T09:49:55.421Z,3.08
2022-12-26T09:52:42.220Z,2.85
2022-12-26T09:55:38.003Z,3.38
2022-12-26T09:58:12.651Z,4.03
2022-12-26T10:00:56.178Z,2.83
2022-12-26T10:03:24.321Z,2.33
2022-12-26T10:06:07.152Z,1.83
2022-12-26T10:08:43.152Z,2.78
2022-12-26T10:11:23.125Z,2.00
2022-12-26T10:13:56.556Z,2.45
2022-12-26T10:16:38.143Z,2.30
2022-12-26T10:19:20.077Z,2.42
2022-12-26T10:22:17.433Z,1.90
2022-12-26T10:24:47.000Z,1.53
2022-12-26T10:27:17.252Z,2.53
2022-12-26T10:30:15.349Z,2.30
2022-12-26T10:32:48.074Z,2.30
2022-12-26T10:35:35.158Z,2.45
2022-12-26T10:38:39.842Z,2.57
2022-12-26T10:41:14.516Z,2.13
2022-12-26T10:43:44.843Z,2.70
2022-12-26T10:46:19.980Z,2.20
2022-12-26T10:48:48.370Z,2.40
2022-12-26T10:51:16.126Z,3.03
2022-12-26T10:53:47.991Z,2.67
2022-12-26T10:56:18.254Z,2.40
2022-12-26T10:58:49.412Z,2.65
2022-12-26T11:01:47.430Z,2.05
2022-12-26T11:04:53.040Z,2.60
2022-12-26T11:07:18.575Z,2.08
2022-12-26T11:09:46.059Z,1.65
2022-12-26T11:12:27.726Z,2.10
2022-12-26T11:15:01.586Z,2.30
2022-12-26T11:17:39.212Z,1.60
2022-12-26T11:20:26.516Z,2.28
2022-12-26T11:22:54.014Z,2.63
2022-12-26T11:25:25.799Z,1.83
2022-12-26T11:27:55.806Z,2.10
2022-12-26T11:30:28.070Z,1.90
2022-12-26T11:33:14.237Z,1.65
2022-12-26T11:36:03.133Z,1.65
2022-12-26T11:38:42.401Z,1.77
2022-12-26T11:41:31.854Z,2.45
2022-12-26T11:44:30.417Z,1.40
2022-12-26T11:47:15.041Z,1.67
2022-12-26T11:50:05.560Z,1.80
2022-12-26T11:52:32.775Z,1.65
2022-12-26T11:55:00.276Z,2.15
2022-12-26T11:57:30.616Z,1.70
2022-12-26T12:00:17.144Z,2.20
2022-12-26T12:02:44.794Z,1.90
2022-12-26T12:05:23.785Z,2.10
2022-12-26T12:08:04.290Z,2.50
2022-12-26T12:11:00.309Z,1.90
2022-12-26T12:13:36.446Z,1.90
2022-12-26T12:16:24.570Z,2.03
2022-12-26T12:18:59.690Z,1.80
2022-12-26T12:21:50.667Z,1.83
2022-12-26T12:24:48.874Z,1.90
2022-12-26T12:27:42.950Z,1.85
2022-12-26T12:30:20.732Z,1.70
2022-12-26T12:33:02.667Z,5.15
2022-12-26T12:35:43.523Z,2.08
2022-12-26T12:38:34.836Z,2.00
2022-12-26T12:41:18.390Z,2.03
2022-12-26T12:43:45.752Z,1.80
2022-12-26T12:46:40.910Z,2.10
2022-12-26T12:49:14.316Z,2.00
2022-12-26T12:51:59.987Z,2.57
2022-12-26T12:54:55.090Z,1.70
2022-12-26T12:57:47.923Z,2.40
2022-12-26T13:00:24.914Z,2.38
2022-12-26T13:03:11.444Z,2.15
2022-12-26T13:06:06.186Z,2.17
2022-12-26T13:08:33.336Z,1.80
2022-12-26T13:11:32.671Z,2.10
2022-12-26T13:14:08.241Z,1.80
2022-12-26T13:16:43.852Z,2.42
2022-12-26T13:19:19.163Z,1.60
2022-12-26T13:21:47.748Z,2.08
2022-12-26T13:24:25.811Z,2.20
2022-12-26T13:27:13.902Z,2.15
2022-12-26T13:29:45.638Z,2.10
2022-12-26T13:32:31.103Z,1.70
2022-12-26T13:35:03.635Z,1.50
2022-12-26T13:37:39.349Z,2.03
2022-12-26T13:40:25.622Z,2.00
2022-12-26T13:43:20.420Z,2.08
2022-12-26T13:45:54.819Z,2.57
2022-12-26T13:48:22.258Z,2.30
2022-12-26T13:50:55.188Z,2.13
2022-12-26T13:53:25.768Z,2.20
2022-12-26T13:56:02.327Z,2.45
2022-12-26T13:58:32.352Z,2.30
2022-12-26T14:01:22.670Z,2.08
2022-12-26T14:04:07.464Z,2.22
2022-12-26T14:06:34.713Z,2.00
2022-12-26T14:09:23.749Z,1.80
2022-12-26T14:12:05.520Z,2.27
2022-12-26T14:14:54.728Z,1.58
2022-12-26T14:17:47.162Z,3.25
2022-12-26T14:20:40.559Z,1.95
2022-12-26T14:23:10.279Z,2.30
2022-12-26T14:25:58.362Z,2.33
2022-12-26T14:28:36.899Z,2.15
2022-12-26T14:31:11.616Z,1.95
2022-12-26T14:34:10.677Z,2.13
2022-12-26T14:36:48.451Z,2.58
2022-12-26T14:39:36.739Z,2.00
2022-12-26T14:42:25.381Z,2.15
2022-12-26T14:44:57.546Z,2.20
2022-12-26T14:47:45.715Z,2.75
2022-12-26T14:50:50.695Z,2.40
2022-12-26T14:53:27.385Z,2.60
2022-12-26T14:55:57.178Z,2.30
2022-12-26T14:58:40.349Z,2.95
2022-12-26T15:01:13.387Z,3.75
2022-12-26T15:04:15.746Z,3.10
2022-12-26T15:06:43.725Z,3.10
2022-12-26T15:09:48.204Z,4.68
2022-12-26T15:12:42.663Z,2.88
2022-12-26T15:15:37.645Z,2.63
2022-12-26T15:18:04.957Z,2.22
2022-12-26T15:20:50.355Z,1.97
2022-12-26T15:23:44.217Z,2.97
2022-12-26T15:26:37.579Z,2.40
2022-12-26T15:29:26.232Z,2.35
2022-12-26T15:32:20.923Z,2.30
2022-12-26T15:35:18.575Z,2.93
2022-12-26T15:37:48.437Z,3.90
2022-12-26T15:40:27.464Z,2.17
2022-12-26T15:43:24.752Z,2.15
2022-12-26T15:46:04.843Z,2.30
2022-12-26T15:48:52.636Z,2.00
2022-12-26T15:51:30.962Z,1.90
2022-12-26T15:54:34.561Z,2.05
2022-12-26T15:57:01.740Z,2.03
2022-12-26T15:59:38.672Z,3.25
2022-12-26T16:02:36.407Z,2.50
2022-12-26T16:05:25.393Z,4.18
2022-12-26T16:07:52.799Z,5.00
2022-12-26T16:10:25.517Z,9.38
2022-12-26T16:13:03.972Z,10.75
2022-12-26T16:15:33.482Z,7.00
2022-12-26T16:18:25.871Z,4.00
2022-12-26T16:21:13.773Z,3.00
2022-12-26T16:23:43.512Z,4.20
2022-12-26T16:26:19.423Z,3.42
2022-12-26T16:28:47.080Z,3.27
2022-12-26T16:31:19.849Z,3.17
2022-12-26T16:33:47.479Z,3.78
2022-12-26T16:36:20.922Z,5.32
2022-12-26T16:38:48.359Z,5.28
2022-12-26T16:41:25.448Z,6.80
2022-12-26T16:43:56.365Z,8.18
2022-12-26T16:46:27.133Z,6.97
2022-12-26T16:48:57.889Z,5.55
2022-12-26T16:51:30.782Z,6.43
2022-12-26T16:54:15.859Z,6.73
2022-12-26T16:56:43.610Z,6.70
2022-12-26T16:59:17.880Z,7.25
2022-12-26T17:01:57.059Z,6.80
2022-12-26T17:04:26.363Z,6.25
2022-12-26T17:07:15.179Z,6.07
2022-12-26T17:09:46.369Z,6.28
2022-12-26T17:12:26.418Z,12.77
2022-12-26T17:14:55.512Z,11.77
2022-12-26T17:17:22.993Z,8.23
2022-12-26T17:20:24.598Z,6.43
2022-12-26T17:22:51.863Z,7.68
2022-12-26T17:25:31.071Z,6.03
2022-12-26T17:28:15.199Z,5.72
2022-12-26T17:30:48.538Z,5.90
2022-12-26T17:33:22.730Z,4.93
2022-12-26T17:36:52.593Z,4.55
2022-12-26T17:38:44.823Z,5.55
2022-12-26T17:41:15.397Z,12.25
2022-12-26T17:43:43.768Z,5.32
2022-12-26T17:46:13.966Z,6.53
2022-12-26T17:48:42.209Z,6.18
2022-12-26T17:51:15.262Z,4.78
2022-12-26T17:53:46.633Z,4.43
2022-12-26T17:56:21.071Z,3.40
2022-12-26T17:58:48.766Z,4.10
2022-12-26T18:01:21.088Z,4.22
2022-12-26T18:03:49.522Z,5.13
2022-12-26T18:06:17.829Z,4.05
2022-12-26T18:08:45.141Z,2.72
2022-12-26T18:11:13.530Z,4.57
2022-12-26T18:13:41.337Z,2.20
2022-12-26T18:16:08.754Z,4.82
2022-12-26T18:18:44.821Z,8.43
2022-12-26T18:21:13.931Z,2.88
2022-12-26T18:23:41.217Z,2.47
2022-12-26T18:26:27.361Z,3.63
2022-12-26T18:28:55.212Z,4.45
2022-12-26T18:31:23.473Z,3.42
2022-12-26T18:33:50.776Z,2.22
2022-12-26T18:36:18.340Z,3.90
2022-12-26T18:38:45.891Z,6.00
2022-12-26T18:41:17.244Z,20.67
2022-12-26T18:43:44.581Z,9.18
2022-12-26T18:46:26.233Z,4.00
2022-12-26T18:48:54.334Z,3.90
2022-12-26T18:51:21.799Z,2.85
2022-12-26T18:53:49.017Z,2.38
2022-12-26T18:56:21.067Z,3.45
2022-12-26T18:58:55.485Z,2.67
2022-12-26T19:01:25.358Z,3.40
2022-12-26T19:03:53.984Z,3.50
2022-12-26T19:06:26.751Z,4.50
2022-12-26T19:08:54.332Z,2.67
2022-12-26T19:11:21.624Z,3.20
2022-12-26T19:13:49.082Z,2.90
2022-12-26T19:16:16.435Z,3.47
2022-12-26T19:18:43.727Z,4.07
2022-12-26T19:21:12.802Z,2.90
2022-12-26T19:23:40.372Z,4.10
2022-12-26T19:26:16.755Z,2.40
2022-12-26T19:28:43.617Z,2.72
2022-12-26T19:31:14.938Z,3.17
2022-12-26T19:33:42.303Z,3.33
2022-12-26T19:36:09.824Z,3.60
2022-12-26T19:38:37.222Z,3.03
2022-12-26T19:41:06.179Z,4.03
2022-12-26T19:43:33.514Z,3.03
2022-12-26T19:46:05.453Z,3.70
2022-12-26T19:48:35.705Z,2.90
2022-12-26T19:51:14.158Z,3.00
2022-12-26T19:53:42.162Z,3.17
2022-12-26T19:56:15.365Z,2.72
2022-12-26T19:58:42.935Z,3.10
2022-12-26T20:01:16.062Z,2.92
2022-12-26T20:03:44.895Z,2.63
2022-12-26T20:06:18.098Z,2.75
2022-12-26T20:08:46.416Z,2.42
2022-12-26T20:11:21.619Z,3.35
2022-12-26T20:13:49.228Z,2.90
2022-12-26T20:16:45.950Z,4.23
2022-12-26T20:19:06.048Z,4.22
2022-12-26T20:21:33.636Z,3.15
2022-12-26T20:24:01.835Z,3.55
2022-12-26T20:26:29.496Z,5.10
2022-12-26T20:29:01.152Z,6.03
2022-12-26T20:31:29.839Z,4.30
2022-12-26T20:33:57.770Z,3.60
2022-12-26T20:36:28.166Z,5.05
2022-12-26T20:38:57.737Z,3.60
2022-12-26T20:41:25.643Z,3.07
2022-12-26T20:43:53.198Z,3.40
2022-12-26T20:46:23.222Z,4.22
2022-12-26T20:48:51.036Z,2.65
2022-12-26T20:51:21.231Z,4.53
2022-12-26T20:53:48.486Z,2.20
2022-12-26T20:56:15.870Z,4.45
2022-12-26T20:58:42.901Z,2.45
2022-12-26T21:01:22.416Z,3.17
2022-12-26T21:03:52.878Z,2.95
2022-12-26T21:06:29.320Z,5.13
2022-12-26T21:08:57.697Z,2.80
2022-12-26T21:11:27.861Z,2.60
2022-12-26T21:13:58.088Z,2.40
2022-12-26T21:16:31.156Z,2.85
2022-12-26T21:18:58.967Z,2.30
2022-12-26T21:21:29.141Z,1.70
2022-12-26T21:24:12.126Z,3.08
2022-12-26T21:26:40.542Z,2.80
2022-12-26T21:29:11.649Z,2.47
2022-12-26T21:31:39.224Z,4.60
2022-12-26T21:34:06.847Z,2.78
2022-12-26T21:36:35.479Z,4.20
2022-12-26T21:39:09.959Z,3.20
2022-12-26T21:41:37.835Z,3.75
2022-12-26T21:44:05.284Z,3.23
2022-12-26T21:46:32.647Z,3.63
2022-12-26T21:49:01.142Z,3.38
2022-12-26T21:51:29.630Z,2.80
2022-12-26T21:54:16.526Z,3.28
2022-12-26T21:56:43.721Z,3.33
2022-12-26T21:59:29.916Z,3.00
2022-12-26T22:01:56.967Z,19.35
2022-12-26T22:04:24.415Z,5.38
2022-12-26T22:06:51.926Z,6.00
2022-12-26T22:09:19.535Z,2.83
2022-12-26T22:12:05.918Z,3.72
2022-12-26T22:14:32.844Z,2.97
2022-12-26T22:17:00.235Z,2.60
2022-12-26T22:19:27.576Z,4.43
2022-12-26T22:21:55.311Z,4.23
2022-12-26T22:24:22.846Z,4.00
2022-12-26T22:26:50.312Z,3.97
2022-12-26T22:29:17.683Z,4.03
2022-12-26T22:31:44.953Z,3.05
2022-12-26T22:34:13.982Z,2.80
2022-12-26T22:36:41.703Z,3.45
2022-12-26T22:39:12.701Z,3.33
2022-12-26T22:41:40.305Z,3.15
2022-12-26T22:44:12.313Z,2.80
2022-12-26T22:46:42.680Z,3.43
2022-12-26T22:49:10.023Z,3.53
2022-12-26T22:51:37.235Z,3.95
2022-12-26T22:54:04.171Z,3.47
2022-12-26T22:56:31.395Z,3.17
2022-12-26T22:59:03.500Z,2.93
2022-12-26T23:01:31.080Z,3.20
2022-12-26T23:04:00.393Z,3.13
2022-12-26T23:06:30.425Z,3.58
2022-12-26T23:08:59.032Z,3.85
2022-12-26T23:11:35.062Z,3.23
2022-12-26T23:14:04.874Z,4.05
2022-12-26T23:16:42.512Z,4.95
2022-12-26T23:19:51.085Z,3.00
2022-12-26T23:22:18.482Z,3.20
2022-12-26T23:24:45.714Z,3.40
2022-12-26T23:27:31.990Z,2.13
2022-12-26T23:30:18.100Z,3.42
2022-12-26T23:32:49.938Z,3.50
2022-12-26T23:35:17.235Z,4.20
2022-12-26T23:37:44.694Z,3.53
2022-12-26T23:40:13.532Z,2.53
2022-12-26T23:42:40.897Z,3.35
2022-12-26T23:45:09.243Z,3.47
2022-12-26T23:47:37.143Z,4.25
2022-12-26T23:50:05.811Z,4.00
2022-12-26T23:52:33.360Z,3.72
2022-12-26T23:55:00.611Z,3.90
2022-12-26T23:57:28.077Z,2.55
2022-12-26T23:59:55.094Z,2.83
